Time,TemperatureF,DewpointF,PressureIn,WindDirection,WindDirectionDegrees,WindSpeedMPH,WindSpeedGustMPH,Humidity,HourlyPrecipIn,Conditions,Clouds,dailyrainin,SoftwareType,DateUTC
2013-06-13 00:02:00,75.0,67.0,-100.00,WNW,300,20.0,39.0,77,-99.99,,,-99.99,,2013-06-13 05:02:00,
2013-06-13 00:12:00,74.0,67.0,-100.00,WNW,295,21.0,31.0,79,-99.99,,,-99.99,,2013-06-13 05:12:00,
2013-06-13 00:24:00,74.0,67.0,-100.00,WNW,295,21.0,31.0,79,-99.99,,,-99.99,,2013-06-13 05:24:00,
2013-06-13 00:33:00,73.0,66.0,-100.00,WNW,290,19.0,29.0,80,-99.99,,,-99.99,,2013-06-13 05:33:00,
2013-06-13 00:43:00,72.0,66.0,-100.00,WNW,285,15.0,23.0,81,-99.99,,,-99.99,,2013-06-13 05:43:00,
2013-06-13 00:53:00,72.0,66.0,-100.00,WNW,285,15.0,23.0,81,-99.99,,,-99.99,,2013-06-13 05:53:00,
2013-06-13 01:02:00,71.0,65.0,-100.00,WNW,290,26.0,34.0,81,-99.99,,,-99.99,,2013-06-13 06:02:00,
2013-06-13 01:11:00,71.0,65.0,-100.00,WNW,285,23.0,30.0,82,-99.99,,,-99.99,,2013-06-13 06:11:00,
2013-06-13 01:22:00,71.0,65.0,-100.00,WNW,285,23.0,30.0,82,-99.99,,,-99.99,,2013-06-13 06:22:00,
2013-06-13 01:33:00,70.0,65.0,-100.00,WNW,295,21.0,31.0,83,-99.99,,,-99.99,,2013-06-13 06:33:00,
2013-06-13 01:44:00,70.0,65.0,-100.00,WNW,295,21.0,31.0,83,-99.99,,,-99.99,,2013-06-13 06:44:00,
2013-06-13 01:52:00,70.0,65.0,-100.00,WNW,295,21.0,31.0,83,-99.99,,,-99.99,,2013-06-13 06:52:00,
2013-06-13 02:01:00,69.0,65.0,-100.00,WNW,290,21.0,30.0,87,-99.99,,,-99.99,,2013-06-13 07:01:00,
2013-06-13 02:12:00,69.0,66.0,-100.00,WNW,300,24.0,32.0,89,-99.99,,,-99.99,,2013-06-13 07:12:00,
2013-06-13 02:22:00,69.0,66.0,-100.00,WNW,300,24.0,32.0,89,-99.99,,,-99.99,,2013-06-13 07:22:00,
2013-06-13 02:33:00,68.0,66.0,-100.00,WNW,295,23.0,28.0,91,-99.99,,,-99.99,,2013-06-13 07:33:00,
2013-06-13 02:42:00,68.0,65.0,-100.00,WNW,300,23.0,32.0,91,-99.99,,,-99.99,,2013-06-13 07:42:00,
2013-06-13 02:52:00,68.0,65.0,-100.00,WNW,300,23.0,32.0,91,-99.99,,,-99.99,,2013-06-13 07:52:00,
2013-06-13 03:01:00,68.0,65.0,-100.00,WNW,300,21.0,30.0,91,-99.99,,,-99.99,,2013-06-13 08:01:00,
2013-06-13 03:11:00,68.0,65.0,-100.00,WNW,300,19.0,30.0,91,-99.99,,,-99.99,,2013-06-13 08:11:00,
2013-06-13 03:22:00,68.0,65.0,-100.00,WNW,300,19.0,30.0,91,-99.99,,,-99.99,,2013-06-13 08:22:00,
2013-06-13 03:32:00,68.0,66.0,-100.00,NW,310,18.0,27.0,92,-99.99,,,-99.99,,2013-06-13 08:32:00,
2013-06-13 03:43:00,68.0,66.0,-100.00,NW,315,19.0,26.0,92,-99.99,,,-99.99,,2013-06-13 08:43:00,
2013-06-13 03:52:00,68.0,66.0,-100.00,NW,315,19.0,26.0,92,-99.99,,,-99.99,,2013-06-13 08:52:00,
2013-06-13 04:02:00,68.0,67.0,-100.00,NNE,15,17.0,26.0,96,-99.99,,,-99.99,,2013-06-13 09:02:00,
2013-06-13 04:12:00,67.0,66.0,-100.00,NNE,25,19.0,29.0,97,-99.99,,,-99.99,,2013-06-13 09:12:00,
2013-06-13 04:22:00,67.0,66.0,-100.00,NNE,25,19.0,29.0,97,-99.99,,,-99.99,,2013-06-13 09:22:00,
2013-06-13 04:32:00,67.0,66.0,-100.00,North,10,17.0,26.0,97,-99.99,,,-99.99,,2013-06-13 09:32:00,
2013-06-13 04:42:00,67.0,66.0,-100.00,North,10,13.0,21.0,96,-99.99,,,-99.99,,2013-06-13 09:42:00,
2013-06-13 04:52:00,67.0,66.0,-100.00,North,10,13.0,21.0,96,-99.99,,,-99.99,,2013-06-13 09:52:00,
2013-06-13 05:01:00,67.0,66.0,-100.00,North,10,15.0,30.0,96,-99.99,,,-99.99,,2013-06-13 10:01:00,
2013-06-13 05:11:00,67.0,65.0,-100.00,NNE,15,20.0,27.0,94,-99.99,,,-99.99,,2013-06-13 10:11:00,
2013-06-13 05:22:00,67.0,65.0,-100.00,NNE,15,20.0,27.0,94,-99.99,,,-99.99,,2013-06-13 10:22:00,
2013-06-13 05:33:00,67.0,65.0,-100.00,North,0,10.0,21.0,93,-99.99,,,-99.99,,2013-06-13 10:33:00,
2013-06-13 05:43:00,67.0,65.0,-100.00,NNE,20,14.0,22.0,93,-99.99,,,-99.99,,2013-06-13 10:43:00,
2013-06-13 05:53:00,67.0,65.0,-100.00,NNE,20,14.0,22.0,93,-99.99,,,-99.99,,2013-06-13 10:53:00,
2013-06-13 06:02:00,67.0,65.0,-100.00,North,0,11.0,20.0,94,-99.99,,,-99.99,,2013-06-13 11:02:00,
2013-06-13 06:11:00,66.0,64.0,-100.00,North,0,17.0,24.0,94,-99.99,,,-99.99,,2013-06-13 11:11:00,
2013-06-13 06:23:00,66.0,64.0,-100.00,North,0,17.0,24.0,94,-99.99,,,-99.99,,2013-06-13 11:23:00,
2013-06-13 06:32:00,65.0,64.0,-100.00,NNE,15,15.0,24.0,95,-99.99,,,-99.99,,2013-06-13 11:32:00,
2013-06-13 06:42:00,65.0,63.0,-100.00,NNE,25,16.0,25.0,93,-99.99,,,-99.99,,2013-06-13 11:42:00,
2013-06-13 06:52:00,65.0,63.0,-100.00,NNE,25,16.0,25.0,93,-99.99,,,-99.99,,2013-06-13 11:52:00,
2013-06-13 07:01:00,66.0,63.0,-100.00,North,10,12.0,27.0,91,-99.99,,,-99.99,,2013-06-13 12:01:00,
2013-06-13 07:12:00,65.0,63.0,-100.00,North,0,11.0,21.0,91,-99.99,,,-99.99,,2013-06-13 12:12:00,
2013-06-13 07:22:00,65.0,63.0,-100.00,North,0,11.0,21.0,91,-99.99,,,-99.99,,2013-06-13 12:22:00,
2013-06-13 07:35:00,66.0,61.0,-100.00,North,0,13.0,24.0,86,-99.99,,,-99.99,,2013-06-13 12:35:00,
2013-06-13 07:42:00,66.0,59.0,-100.00,North,0,14.0,21.0,79,-99.99,,,-99.99,,2013-06-13 12:42:00,
2013-06-13 07:52:00,66.0,59.0,-100.00,North,0,14.0,21.0,79,-99.99,,,-99.99,,2013-06-13 12:52:00,
2013-06-13 08:01:00,66.0,58.0,-100.00,North,10,16.0,21.0,74,-99.99,,,-99.99,,2013-06-13 13:01:00,
2013-06-13 08:11:00,67.0,56.0,-100.00,NNE,20,17.0,24.0,69,-99.99,,,-99.99,,2013-06-13 13:11:00,
2013-06-13 08:22:00,67.0,56.0,-100.00,NNE,20,17.0,24.0,69,-99.99,,,-99.99,,2013-06-13 13:22:00,
2013-06-13 08:32:00,67.0,56.0,-100.00,NNE,20,18.0,24.0,67,-99.99,,,-99.99,,2013-06-13 13:32:00,
2013-06-13 08:43:00,69.0,56.0,-100.00,NNE,25,11.0,21.0,64,-99.99,,,-99.99,,2013-06-13 13:43:00,
2013-06-13 08:53:00,69.0,56.0,-100.00,NNE,25,11.0,21.0,64,-99.99,,,-99.99,,2013-06-13 13:53:00,
2013-06-13 09:02:00,69.0,54.0,-100.00,NNE,20,13.0,18.0,60,-99.99,,,-99.99,,2013-06-13 14:02:00,
2013-06-13 09:11:00,70.0,54.0,-100.00,NNE,30,9.0,18.0,57,-99.99,,,-99.99,,2013-06-13 14:11:00,
2013-06-13 09:22:00,70.0,54.0,-100.00,NNE,30,9.0,18.0,57,-99.99,,,-99.99,,2013-06-13 14:22:00,
2013-06-13 09:33:00,71.0,53.0,-100.00,NNE,25,13.0,16.0,54,-99.99,,,-99.99,,2013-06-13 14:33:00,
2013-06-13 09:43:00,72.0,54.0,-100.00,NNE,25,10.0,19.0,52,-99.99,,,-99.99,,2013-06-13 14:43:00,
2013-06-13 09:53:00,72.0,54.0,-100.00,NNE,25,10.0,19.0,52,-99.99,,,-99.99,,2013-06-13 14:53:00,
2013-06-13 10:02:00,72.0,53.0,-100.00,NNE,15,11.0,19.0,51,-99.99,,,-99.99,,2013-06-13 15:02:00,
2013-06-13 10:12:00,74.0,54.0,-100.00,NE,35,9.0,19.0,50,-99.99,,,-99.99,,2013-06-13 15:12:00,
2013-06-13 10:22:00,74.0,54.0,-100.00,NE,35,9.0,19.0,50,-99.99,,,-99.99,,2013-06-13 15:22:00,
2013-06-13 10:33:00,74.0,54.0,-100.00,NE,35,11.0,18.0,49,-99.99,,,-99.99,,2013-06-13 15:33:00,
2013-06-13 10:43:00,74.0,54.0,-100.00,NE,35,11.0,18.0,49,-99.99,,,-99.99,,2013-06-13 15:43:00,
2013-06-13 10:53:00,74.0,53.0,-100.00,North,10,11.0,20.0,48,-99.99,,,-99.99,,2013-06-13 15:53:00,
2013-06-13 11:02:00,75.0,54.0,-100.00,NNE,20,13.0,19.0,47,-99.99,,,-99.99,,2013-06-13 16:02:00,
2013-06-13 11:12:00,75.0,53.0,-100.00,NNE,25,11.0,16.0,46,-99.99,,,-99.99,,2013-06-13 16:12:00,
2013-06-13 11:22:00,75.0,53.0,-100.00,NNE,25,11.0,16.0,46,-99.99,,,-99.99,,2013-06-13 16:22:00,
2013-06-13 11:33:00,76.0,53.0,-100.00,NE,55,10.0,19.0,45,-99.99,,,-99.99,,2013-06-13 16:33:00,
2013-06-13 11:43:00,76.0,52.0,-100.00,NNE,30,13.0,21.0,43,-99.99,,,-99.99,,2013-06-13 16:43:00,
2013-06-13 11:53:00,76.0,52.0,-100.00,NNE,30,13.0,21.0,43,-99.99,,,-99.99,,2013-06-13 16:53:00,
2013-06-13 12:02:00,78.0,52.0,-100.00,ENE,65,9.0,16.0,41,-99.99,,,-99.99,,2013-06-13 17:02:00,
2013-06-13 12:11:00,78.0,53.0,-100.00,North,10,11.0,19.0,41,-99.99,,,-99.99,,2013-06-13 17:11:00,
2013-06-13 12:24:00,78.0,53.0,-100.00,North,10,11.0,19.0,41,-99.99,,,-99.99,,2013-06-13 17:24:00,
2013-06-13 12:33:00,79.0,53.0,-100.00,ENE,65,9.0,14.0,40,-99.99,,,-99.99,,2013-06-13 17:33:00,
2013-06-13 12:43:00,79.0,52.0,-100.00,NE,35,10.0,18.0,39,-99.99,,,-99.99,,2013-06-13 17:43:00,
2013-06-13 12:53:00,79.0,52.0,-100.00,NE,35,10.0,18.0,39,-99.99,,,-99.99,,2013-06-13 17:53:00,
2013-06-13 13:02:00,80.0,52.0,-100.00,North,10,8.0,18.0,38,-99.99,,,-99.99,,2013-06-13 18:02:00,
2013-06-13 13:11:00,80.0,53.0,-100.00,North,0,7.0,14.0,39,-99.99,,,-99.99,,2013-06-13 18:11:00,
2013-06-13 13:22:00,80.0,53.0,-100.00,North,0,7.0,14.0,39,-99.99,,,-99.99,,2013-06-13 18:22:00,
2013-06-13 13:33:00,81.0,52.0,-100.00,NNE,15,9.0,19.0,37,-99.99,,,-99.99,,2013-06-13 18:33:00,
2013-06-13 13:43:00,81.0,53.0,-100.00,North,0,10.0,19.0,38,-99.99,,,-99.99,,2013-06-13 18:43:00,
2013-06-13 13:52:00,81.0,53.0,-100.00,North,0,10.0,19.0,38,-99.99,,,-99.99,,2013-06-13 18:52:00,
2013-06-13 14:01:00,81.0,52.0,-100.00,North,0,14.0,24.0,37,-99.99,,,-99.99,,2013-06-13 19:01:00,
2013-06-13 14:11:00,81.0,51.0,-100.00,North,0,14.0,19.0,36,-99.99,,,-99.99,,2013-06-13 19:11:00,
2013-06-13 14:22:00,81.0,51.0,-100.00,North,0,14.0,19.0,36,-99.99,,,-99.99,,2013-06-13 19:22:00,
2013-06-13 14:33:00,81.0,52.0,-100.00,North,10,7.0,16.0,36,-99.99,,,-99.99,,2013-06-13 19:33:00,
2013-06-13 14:43:00,82.0,52.0,-100.00,NW,325,11.0,20.0,36,-99.99,,,-99.99,,2013-06-13 19:43:00,
2013-06-13 14:53:00,82.0,52.0,-100.00,NW,325,11.0,20.0,36,-99.99,,,-99.99,,2013-06-13 19:53:00,
2013-06-13 15:02:00,82.0,51.0,-100.00,North,0,14.0,22.0,35,-99.99,,,-99.99,,2013-06-13 20:02:00,
2013-06-13 15:11:00,81.0,51.0,-100.00,NNE,30,9.0,21.0,35,-99.99,,,-99.99,,2013-06-13 20:11:00,
2013-06-13 15:22:00,81.0,51.0,-100.00,NNE,30,9.0,21.0,35,-99.99,,,-99.99,,2013-06-13 20:22:00,
2013-06-13 15:33:00,83.0,52.0,-100.00,North,5,10.0,19.0,35,-99.99,,,-99.99,,2013-06-13 20:33:00,
2013-06-13 15:44:00,82.0,52.0,-100.00,NNW,345,5.0,21.0,36,-99.99,,,-99.99,,2013-06-13 20:44:00,
2013-06-13 15:53:00,82.0,52.0,-100.00,NNW,345,5.0,21.0,36,-99.99,,,-99.99,,2013-06-13 20:53:00,
2013-06-13 16:02:00,81.0,51.0,-100.00,North,0,11.0,18.0,35,-99.99,,,-99.99,,2013-06-13 21:02:00,
2013-06-13 16:11:00,81.0,51.0,-100.00,North,355,13.0,20.0,36,-99.99,,,-99.99,,2013-06-13 21:11:00,
2013-06-13 16:22:00,81.0,51.0,-100.00,North,355,13.0,20.0,36,-99.99,,,-99.99,,2013-06-13 21:22:00,
2013-06-13 16:34:00,81.0,52.0,-100.00,NNE,20,9.0,15.0,37,-99.99,,,-99.99,,2013-06-13 21:34:00,
2013-06-13 16:43:00,82.0,52.0,-100.00,North,10,6.0,13.0,36,-99.99,,,-99.99,,2013-06-13 21:43:00,
2013-06-13 16:52:00,82.0,52.0,-100.00,North,10,6.0,13.0,36,-99.99,,,-99.99,,2013-06-13 21:52:00,
2013-06-13 17:02:00,82.0,52.0,-100.00,NE,35,12.0,16.0,36,-99.99,,,-99.99,,2013-06-13 22:02:00,
2013-06-13 17:11:00,82.0,52.0,-100.00,NNE,20,10.0,14.0,36,-99.99,,,-99.99,,2013-06-13 22:11:00,
2013-06-13 17:22:00,82.0,52.0,-100.00,NNE,20,10.0,14.0,36,-99.99,,,-99.99,,2013-06-13 22:22:00,
2013-06-13 17:33:00,82.0,53.0,-100.00,North,0,8.0,17.0,36,-99.99,,,-99.99,,2013-06-13 22:33:00,
2013-06-13 17:43:00,82.0,52.0,-100.00,North,350,4.0,15.0,36,-99.99,,,-99.99,,2013-06-13 22:43:00,
2013-06-13 17:52:00,82.0,52.0,-100.00,North,350,4.0,15.0,36,-99.99,,,-99.99,,2013-06-13 22:52:00,
2013-06-13 18:02:00,81.0,52.0,-100.00,NNE,25,9.0,17.0,37,-99.99,,,-99.99,,2013-06-13 23:02:00,
2013-06-13 18:11:00,81.0,53.0,-100.00,North,5,9.0,14.0,37,-99.99,,,-99.99,,2013-06-13 23:11:00,
2013-06-13 18:22:00,81.0,53.0,-100.00,North,5,9.0,14.0,37,-99.99,,,-99.99,,2013-06-13 23:22:00,
2013-06-13 18:32:00,81.0,53.0,-100.00,North,0,9.0,14.0,38,-99.99,,,-99.99,,2013-06-13 23:32:00,
2013-06-13 18:43:00,82.0,54.0,-100.00,North,0,2.0,9.0,38,-99.99,,,-99.99,,2013-06-13 23:43:00,
2013-06-13 18:52:00,82.0,54.0,-100.00,North,0,2.0,9.0,38,-99.99,,,-99.99,,2013-06-13 23:52:00,
2013-06-13 19:01:00,81.0,53.0,-100.00,North,0,8.0,19.0,38,-99.99,,,-99.99,,2013-06-14 00:01:00,
2013-06-13 19:12:00,80.0,53.0,-100.00,NNE,15,9.0,15.0,39,-99.99,,,-99.99,,2013-06-14 00:12:00,
2013-06-13 19:22:00,80.0,53.0,-100.00,NNE,15,9.0,15.0,39,-99.99,,,-99.99,,2013-06-14 00:22:00,
2013-06-13 19:34:00,81.0,53.0,-100.00,North,5,4.0,10.0,39,-99.99,,,-99.99,,2013-06-14 00:34:00,
2013-06-13 19:43:00,80.0,53.0,-100.00,North,0,8.0,15.0,40,-99.99,,,-99.99,,2013-06-14 00:43:00,
2013-06-13 19:53:00,80.0,53.0,-100.00,North,0,8.0,15.0,40,-99.99,,,-99.99,,2013-06-14 00:53:00,
2013-06-13 20:01:00,79.0,53.0,-100.00,North,10,10.0,13.0,41,-99.99,,,-99.99,,2013-06-14 01:01:00,
2013-06-13 20:11:00,79.0,53.0,-100.00,North,10,10.0,13.0,41,-99.99,,,-99.99,,2013-06-14 01:11:00,
2013-06-13 20:22:00,79.0,53.0,-100.00,North,10,10.0,13.0,41,-99.99,,,-99.99,,2013-06-14 01:22:00,
2013-06-13 20:32:00,78.0,53.0,-100.00,NNW,345,5.0,10.0,42,-99.99,,,-99.99,,2013-06-14 01:32:00,
2013-06-13 20:43:00,78.0,53.0,-100.00,North,0,5.0,9.0,42,-99.99,,,-99.99,,2013-06-14 01:43:00,
2013-06-13 20:52:00,78.0,53.0,-100.00,North,0,5.0,9.0,42,-99.99,,,-99.99,,2013-06-14 01:52:00,
2013-06-13 21:02:00,77.0,52.0,-100.00,North,5,4.0,8.0,43,-99.99,,,-99.99,,2013-06-14 02:02:00,
2013-06-13 21:11:00,75.0,53.0,-100.00,NNE,25,6.0,9.0,45,-99.99,,,-99.99,,2013-06-14 02:11:00,
2013-06-13 21:22:00,75.0,53.0,-100.00,NNE,25,6.0,9.0,45,-99.99,,,-99.99,,2013-06-14 02:22:00,
2013-06-13 21:32:00,75.0,52.0,-100.00,NNE,30,6.0,9.0,46,-99.99,,,-99.99,,2013-06-14 02:32:00,
2013-06-13 21:43:00,74.0,53.0,-100.00,NE,40,5.0,8.0,48,-99.99,,,-99.99,,2013-06-14 02:43:00,
2013-06-13 21:53:00,74.0,53.0,-100.00,NE,40,5.0,8.0,48,-99.99,,,-99.99,,2013-06-14 02:53:00,
2013-06-13 22:02:00,73.0,53.0,-100.00,NE,35,6.0,9.0,50,-99.99,,,-99.99,,2013-06-14 03:02:00,
2013-06-13 22:12:00,73.0,53.0,-100.00,NE,45,6.0,8.0,51,-99.99,,,-99.99,,2013-06-14 03:12:00,
2013-06-13 22:22:00,73.0,53.0,-100.00,NE,45,6.0,8.0,51,-99.99,,,-99.99,,2013-06-14 03:22:00,
2013-06-13 22:34:00,72.0,53.0,-100.00,NE,45,5.0,7.0,52,-99.99,,,-99.99,,2013-06-14 03:34:00,
2013-06-13 22:43:00,71.0,53.0,-100.00,NE,40,5.0,8.0,53,-99.99,,,-99.99,,2013-06-14 03:43:00,
2013-06-13 22:53:00,71.0,53.0,-100.00,NE,40,5.0,8.0,53,-99.99,,,-99.99,,2013-06-14 03:53:00,
2013-06-13 23:01:00,71.0,54.0,-100.00,NE,55,6.0,9.0,54,-99.99,,,-99.99,,2013-06-14 04:01:00,
2013-06-13 23:12:00,70.0,54.0,-100.00,NE,55,7.0,10.0,57,-99.99,,,-99.99,,2013-06-14 04:12:00,
2013-06-13 23:22:00,70.0,54.0,-100.00,NE,55,7.0,10.0,57,-99.99,,,-99.99,,2013-06-14 04:22:00,
2013-06-13 23:33:00,69.0,55.0,-100.00,ENE,65,9.0,12.0,60,-99.99,,,-99.99,,2013-06-14 04:33:00,
2013-06-13 23:43:00,69.0,55.0,-100.00,ENE,65,8.0,11.0,62,-99.99,,,-99.99,,2013-06-14 04:43:00,
2013-06-13 23:53:00,69.0,55.0,-100.00,ENE,65,8.0,11.0,62,-99.99,,,-99.99,,2013-06-14 04:53:00,